EDDG/FMO METAR and TAF weather

Enter ICAO airport designator
Station Type Date Time Source
EDDG METAR 2019/08/22 02:50 UTC NOAA

EDDG 220250Z VRB01KT CAVOK 10/08 Q1026 NOSIG


Station Type Date Time Source
EDDG Decoded METAR 2019/08/22 02:50 UTC NOAA

Station name not available
Aug 21, 2019 - 10:50 PM EDT / 2019.08.22 0250 UTC
Wind: Variable at 1 MPH (1 KT):0
Visibility: greater than 7 mile(s):0
Temperature: 50 F (10 C)
Dew Point: 46 F (8 C)
Relative Humidity: 87%
Pressure (altimeter): 30.30 in. Hg (1026 hPa)
ob: EDDG 220250Z VRB01KT CAVOK 10/08 Q1026 NOSIG
cycle: 3

Station Type Date Time Source
EDDG TAF 2019/08/21 18:27 UTC NOAA

TAF EDDG 211700Z 2118/2218 VRB03KT CAVOK
BECMG 2209/2212 21007KT
BECMG 2216/2218 VRB02KT

Example: see airport list